sensor_id;sensor_type;location;lat;lon;timestamp;P1;durP1;ratioP1;P2;durP2;ratioP2
13386;SDS011;6763;48.524;9.044;2024-01-10T00:02:05;10.20;;;4.50;;
13386;SDS011;6763;48.524;9.044;2024-01-10T00:04:33;9.13;;;5.50;;
13386;SDS011;6763;48.524;9.044;2024-01-10T00:07:01;10.87;;;5.93;;
13386;SDS011;6763;48.524;9.044;2024-01-10T00:09:26;10.50;;;5.80;;
13386;SDS011;6763;48.524;9.044;2024-01-10T00:11:51;6.67;;;4.37;;
13386;SDS011;6763;48.524;9.044;2024-01-10T00:14:24;8.20;;;5.17;;
13386;SDS011;6763;48.524;9.044;2024-01-10T00:16:49;12.13;;;5.27;;
13386;SDS011;6763;48.524;9.044;2024-01-10T00:19:15;8.30;;;5.13;;
13386;SDS011;6763;48.524;9.044;2024-01-10T00:21:42;8.80;;;5.73;;
13386;SDS011;6763;48.524;9.044;2024-01-10T00:24:08;7.30;;;3.53;;
13386;SDS011;6763;48.524;9.044;2024-01-10T00:26:33;9.77;;;4.77;;
13386;SDS011;6763;48.524;9.044;2024-01-10T00:28:58;9.50;;;5.27;;
13386;SDS011;6763;48.524;9.044;2024-01-10T00:31:24;8.13;;;4.47;;
13386;SDS011;6763;48.524;9.044;2024-01-10T00:33:51;12.40;;;6.23;;
13386;SDS011;6763;48.524;9.044;2024-01-10T00:36:16;9.70;;;5.23;;
13386;SDS011;6763;48.524;9.044;2024-01-10T00:38:42;8.93;;;5.03;;
13386;SDS011;6763;48.524;9.044;2024-01-10T00:41:07;8.63;;;5.67;;
13386;SDS011;6763;48.524;9.044;2024-01-10T00:43:33;15.13;;;7.67;;
13386;SDS011;6763;48.524;9.044;2024-01-10T00:46:00;15.63;;;7.83;;
13386;SDS011;6763;48.524;9.044;2024-01-10T00:48:26;12.77;;;6.47;;
13386;SDS011;6763;48.524;9.044;2024-01-10T00:50:51;15.57;;;6.30;;
13386;SDS011;6763;48.524;9.044;2024-01-10T00:53:16;12.03;;;5.00;;
13386;SDS011;6763;48.524;9.044;2024-01-10T00:55:44;12.03;;;5.43;;
13386;SDS011;6763;48.524;9.044;2024-01-10T00:58:10;13.90;;;6.87;;
13386;SDS011;6763;48.524;9.044;2024-01-10T01:00:35;10.50;;;6.07;;
13386;SDS011;6763;48.524;9.044;2024-01-10T01:03:04;12.33;;;5.97;;
13386;SDS011;6763;48.524;9.044;2024-01-10T01:05:29;11.33;;;5.40;;
13386;SDS011;6763;48.524;9.044;2024-01-10T01:07:55;12.53;;;5.37;;
13386;SDS011;6763;48.524;9.044;2024-01-10T01:10:21;12.40;;;5.97;;
13386;SDS011;6763;48.524;9.044;2024-01-10T01:12:46;12.20;;;6.43;;
13386;SDS011;6763;48.524;9.044;2024-01-10T01:15:11;12.30;;;6.60;;
13386;SDS011;6763;48.524;9.044;2024-01-10T01:17:37;12.43;;;6.13;;
13386;SDS011;6763;48.524;9.044;2024-01-10T01:20:02;13.00;;;6.37;;
13386;SDS011;6763;48.524;9.044;2024-01-10T01:22:32;9.27;;;5.37;;
13386;SDS011;6763;48.524;9.044;2024-01-10T01:25:00;14.40;;;7.37;;
13386;SDS011;6763;48.524;9.044;2024-01-10T01:27:25;10.33;;;6.90;;
13386;SDS011;6763;48.524;9.044;2024-01-10T01:29:50;12.83;;;5.60;;
13386;SDS011;6763;48.524;9.044;2024-01-10T01:32:18;10.43;;;6.03;;
13386;SDS011;6763;48.524;9.044;2024-01-10T01:34:44;11.57;;;4.63;;
13386;SDS011;6763;48.524;9.044;2024-01-10T01:37:09;12.03;;;4.83;;
13386;SDS011;6763;48.524;9.044;2024-01-10T01:39:34;14.00;;;5.60;;
13386;SDS011;6763;48.524;9.044;2024-01-10T01:42:07;8.97;;;5.67;;
13386;SDS011;6763;48.524;9.044;2024-01-10T01:44:33;10.13;;;4.37;;
13386;SDS011;6763;48.524;9.044;2024-01-10T01:47:01;9.53;;;4.50;;
13386;SDS011;6763;48.524;9.044;2024-01-10T01:49:26;8.50;;;5.77;;
13386;SDS011;6763;48.524;9.044;2024-01-10T01:51:53;9.80;;;5.47;;
13386;SDS011;6763;48.524;9.044;2024-01-10T01:54:19;10.90;;;5.23;;
13386;SDS011;6763;48.524;9.044;2024-01-10T01:56:45;12.40;;;6.20;;
13386;SDS011;6763;48.524;9.044;2024-01-10T01:59:11;9.43;;;5.37;;
13386;SDS011;6763;48.524;9.044;2024-01-10T02:01:37;15.23;;;5.60;;
13386;SDS011;6763;48.524;9.044;2024-01-10T02:04:02;10.50;;;5.33;;
13386;SDS011;6763;48.524;9.044;2024-01-10T02:06:28;8.40;;;5.03;;
13386;SDS011;6763;48.524;9.044;2024-01-10T02:08:55;11.40;;;4.60;;
13386;SDS011;6763;48.524;9.044;2024-01-10T02:11:21;9.27;;;4.33;;
13386;SDS011;6763;48.524;9.044;2024-01-10T02:13:50;10.87;;;4.53;;
13386;SDS011;6763;48.524;9.044;2024-01-10T02:16:16;8.63;;;4.60;;
13386;SDS011;6763;48.524;9.044;2024-01-10T02:18:42;7.33;;;4.83;;
13386;SDS011;6763;48.524;9.044;2024-01-10T02:21:11;11.43;;;5.53;;
13386;SDS011;6763;48.524;9.044;2024-01-10T02:23:36;7.47;;;5.20;;
13386;SDS011;6763;48.524;9.044;2024-01-10T02:26:01;7.13;;;4.00;;
13386;SDS011;6763;48.524;9.044;2024-01-10T02:28:27;8.13;;;4.03;;
13386;SDS011;6763;48.524;9.044;2024-01-10T02:30:56;10.03;;;4.00;;
13386;SDS011;6763;48.524;9.044;2024-01-10T02:33:22;9.13;;;5.57;;
13386;SDS011;6763;48.524;9.044;2024-01-10T02:35:48;12.83;;;5.33;;
13386;SDS011;6763;48.524;9.044;2024-01-10T02:38:14;10.80;;;4.90;;
13386;SDS011;6763;48.524;9.044;2024-01-10T02:40:39;10.03;;;4.73;;
13386;SDS011;6763;48.524;9.044;2024-01-10T02:43:07;10.30;;;4.77;;
13386;SDS011;6763;48.524;9.044;2024-01-10T02:45:34;12.30;;;5.70;;
13386;SDS011;6763;48.524;9.044;2024-01-10T02:48:08;12.03;;;4.93;;
13386;SDS011;6763;48.524;9.044;2024-01-10T02:50:36;7.53;;;4.13;;
13386;SDS011;6763;48.524;9.044;2024-01-10T02:53:03;7.67;;;4.40;;
13386;SDS011;6763;48.524;9.044;2024-01-10T02:55:29;9.30;;;4.90;;
13386;SDS011;6763;48.524;9.044;2024-01-10T02:57:54;9.37;;;4.67;;
13386;SDS011;6763;48.524;9.044;2024-01-10T03:00:19;11.80;;;5.70;;
13386;SDS011;6763;48.524;9.044;2024-01-10T03:02:45;9.53;;;5.33;;
13386;SDS011;6763;48.524;9.044;2024-01-10T03:05:10;11.00;;;5.33;;
13386;SDS011;6763;48.524;9.044;2024-01-10T03:07:36;9.90;;;5.03;;
13386;SDS011;6763;48.524;9.044;2024-01-10T03:10:01;11.00;;;4.40;;
13386;SDS011;6763;48.524;9.044;2024-01-10T03:12:26;12.80;;;6.03;;
13386;SDS011;6763;48.524;9.044;2024-01-10T03:14:55;9.50;;;4.50;;
13386;SDS011;6763;48.524;9.044;2024-01-10T03:17:21;12.97;;;6.00;;
13386;SDS011;6763;48.524;9.044;2024-01-10T03:19:49;8.23;;;4.27;;
13386;SDS011;6763;48.524;9.044;2024-01-10T03:22:15;11.13;;;6.43;;
13386;SDS011;6763;48.524;9.044;2024-01-10T03:24:40;7.80;;;4.57;;
13386;SDS011;6763;48.524;9.044;2024-01-10T03:27:06;10.30;;;5.80;;
13386;SDS011;6763;48.524;9.044;2024-01-10T03:29:31;9.63;;;4.73;;
13386;SDS011;6763;48.524;9.044;2024-01-10T03:31:57;10.60;;;5.37;;
13386;SDS011;6763;48.524;9.044;2024-01-10T03:34:22;10.80;;;5.27;;
13386;SDS011;6763;48.524;9.044;2024-01-10T03:36:48;14.50;;;5.70;;
13386;SDS011;6763;48.524;9.044;2024-01-10T03:39:13;10.43;;;5.40;;
13386;SDS011;6763;48.524;9.044;2024-01-10T03:41:38;12.43;;;5.60;;
13386;SDS011;6763;48.524;9.044;2024-01-10T03:44:04;12.20;;;4.50;;
13386;SDS011;6763;48.524;9.044;2024-01-10T03:46:34;12.10;;;6.37;;
13386;SDS011;6763;48.524;9.044;2024-01-10T03:48:59;13.60;;;6.07;;
13386;SDS011;6763;48.524;9.044;2024-01-10T03:51:24;8.43;;;5.53;;
13386;SDS011;6763;48.524;9.044;2024-01-10T03:53:50;7.37;;;4.33;;
13386;SDS011;6763;48.524;9.044;2024-01-10T03:56:15;10.77;;;5.00;;
13386;SDS011;6763;48.524;9.044;2024-01-10T03:58:41;12.87;;;5.67;;
13386;SDS011;6763;48.524;9.044;2024-01-10T04:01:07;8.53;;;5.20;;
13386;SDS011;6763;48.524;9.044;2024-01-10T04:03:33;11.57;;;5.07;;
13386;SDS011;6763;48.524;9.044;2024-01-10T04:06:00;10.23;;;5.20;;
13386;SDS011;6763;48.524;9.044;2024-01-10T04:08:28;11.60;;;6.30;;
13386;SDS011;6763;48.524;9.044;2024-01-10T04:10:54;17.53;;;5.93;;
13386;SDS011;6763;48.524;9.044;2024-01-10T04:13:19;10.47;;;4.67;;
13386;SDS011;6763;48.524;9.044;2024-01-10T04:15:44;12.07;;;6.43;;
13386;SDS011;6763;48.524;9.044;2024-01-10T04:18:10;12.80;;;5.30;;
13386;SDS011;6763;48.524;9.044;2024-01-10T04:20:35;15.07;;;5.70;;
13386;SDS011;6763;48.524;9.044;2024-01-10T04:23:01;12.50;;;6.43;;
13386;SDS011;6763;48.524;9.044;2024-01-10T04:25:29;13.90;;;5.87;;
13386;SDS011;6763;48.524;9.044;2024-01-10T04:27:54;12.13;;;5.93;;
13386;SDS011;6763;48.524;9.044;2024-01-10T04:30:26;13.70;;;6.03;;
13386;SDS011;6763;48.524;9.044;2024-01-10T04:32:51;9.90;;;5.63;;
13386;SDS011;6763;48.524;9.044;2024-01-10T04:35:17;15.07;;;6.77;;
13386;SDS011;6763;48.524;9.044;2024-01-10T04:37:42;16.10;;;6.80;;
13386;SDS011;6763;48.524;9.044;2024-01-10T04:40:08;11.63;;;5.70;;
13386;SDS011;6763;48.524;9.044;2024-01-10T04:42:34;11.77;;;6.13;;
13386;SDS011;6763;48.524;9.044;2024-01-10T04:44:59;11.57;;;5.60;;
13386;SDS011;6763;48.524;9.044;2024-01-10T04:47:24;10.87;;;6.40;;
13386;SDS011;6763;48.524;9.044;2024-01-10T04:49:50;12.27;;;5.97;;
13386;SDS011;6763;48.524;9.044;2024-01-10T04:52:15;10.77;;;6.07;;
13386;SDS011;6763;48.524;9.044;2024-01-10T04:54:41;11.53;;;6.07;;
13386;SDS011;6763;48.524;9.044;2024-01-10T04:57:06;12.33;;;5.83;;
13386;SDS011;6763;48.524;9.044;2024-01-10T04:59:32;12.40;;;7.43;;
13386;SDS011;6763;48.524;9.044;2024-01-10T05:02:00;9.60;;;5.57;;
13386;SDS011;6763;48.524;9.044;2024-01-10T05:04:26;10.90;;;5.17;;
13386;SDS011;6763;48.524;9.044;2024-01-10T05:06:51;11.27;;;5.60;;
13386;SDS011;6763;48.524;9.044;2024-01-10T05:09:16;12.73;;;5.80;;
13386;SDS011;6763;48.524;9.044;2024-01-10T05:11:50;12.70;;;6.37;;
13386;SDS011;6763;48.524;9.044;2024-01-10T05:14:16;15.40;;;6.40;;
13386;SDS011;6763;48.524;9.044;2024-01-10T05:16:45;8.17;;;5.13;;
13386;SDS011;6763;48.524;9.044;2024-01-10T05:19:12;9.73;;;5.77;;
13386;SDS011;6763;48.524;9.044;2024-01-10T05:21:38;11.63;;;5.37;;
13386;SDS011;6763;48.524;9.044;2024-01-10T05:24:04;12.17;;;6.63;;
13386;SDS011;6763;48.524;9.044;2024-01-10T05:26:30;13.23;;;5.93;;
13386;SDS011;6763;48.524;9.044;2024-01-10T05:28:57;12.97;;;5.60;;
13386;SDS011;6763;48.524;9.044;2024-01-10T05:31:25;13.33;;;5.87;;
13386;SDS011;6763;48.524;9.044;2024-01-10T05:33:53;13.97;;;6.97;;
13386;SDS011;6763;48.524;9.044;2024-01-10T05:36:21;12.10;;;6.37;;
13386;SDS011;6763;48.524;9.044;2024-01-10T05:38:47;11.40;;;6.37;;
13386;SDS011;6763;48.524;9.044;2024-01-10T05:41:13;10.97;;;7.03;;
13386;SDS011;6763;48.524;9.044;2024-01-10T05:43:39;11.87;;;6.83;;
13386;SDS011;6763;48.524;9.044;2024-01-10T05:46:05;14.57;;;6.23;;
13386;SDS011;6763;48.524;9.044;2024-01-10T05:48:30;13.00;;;6.33;;
13386;SDS011;6763;48.524;9.044;2024-01-10T05:50:57;12.03;;;6.10;;
13386;SDS011;6763;48.524;9.044;2024-01-10T05:53:23;12.10;;;6.73;;
13386;SDS011;6763;48.524;9.044;2024-01-10T05:55:50;12.80;;;6.60;;
13386;SDS011;6763;48.524;9.044;2024-01-10T05:58:16;11.27;;;6.30;;
13386;SDS011;6763;48.524;9.044;2024-01-10T06:00:41;18.80;;;6.33;;
13386;SDS011;6763;48.524;9.044;2024-01-10T06:03:09;11.40;;;6.10;;
13386;SDS011;6763;48.524;9.044;2024-01-10T06:05:35;17.13;;;7.53;;
13386;SDS011;6763;48.524;9.044;2024-01-10T06:08:00;17.43;;;7.07;;
13386;SDS011;6763;48.524;9.044;2024-01-10T06:10:31;9.77;;;5.83;;
13386;SDS011;6763;48.524;9.044;2024-01-10T06:12:56;10.30;;;5.63;;
13386;SDS011;6763;48.524;9.044;2024-01-10T06:15:27;9.17;;;5.23;;
13386;SDS011;6763;48.524;9.044;2024-01-10T06:20:27;11.97;;;4.93;;
13386;SDS011;6763;48.524;9.044;2024-01-10T06:22:52;10.83;;;5.73;;
13386;SDS011;6763;48.524;9.044;2024-01-10T06:25:18;9.20;;;5.80;;
13386;SDS011;6763;48.524;9.044;2024-01-10T06:27:43;11.23;;;5.57;;
13386;SDS011;6763;48.524;9.044;2024-01-10T06:30:08;12.93;;;7.07;;
13386;SDS011;6763;48.524;9.044;2024-01-10T06:32:34;11.13;;;6.57;;
13386;SDS011;6763;48.524;9.044;2024-01-10T06:35:00;11.10;;;5.57;;
13386;SDS011;6763;48.524;9.044;2024-01-10T06:37:26;9.37;;;4.90;;
13386;SDS011;6763;48.524;9.044;2024-01-10T06:39:52;10.60;;;5.60;;
13386;SDS011;6763;48.524;9.044;2024-01-10T06:42:18;12.10;;;5.93;;
13386;SDS011;6763;48.524;9.044;2024-01-10T06:44:43;16.77;;;5.73;;
13386;SDS011;6763;48.524;9.044;2024-01-10T06:47:08;10.90;;;5.17;;
13386;SDS011;6763;48.524;9.044;2024-01-10T06:49:35;9.67;;;5.93;;
13386;SDS011;6763;48.524;9.044;2024-01-10T06:52:02;11.63;;;5.73;;
13386;SDS011;6763;48.524;9.044;2024-01-10T06:54:28;11.57;;;5.93;;
13386;SDS011;6763;48.524;9.044;2024-01-10T06:56:53;12.70;;;6.50;;
13386;SDS011;6763;48.524;9.044;2024-01-10T06:59:19;10.67;;;6.47;;
13386;SDS011;6763;48.524;9.044;2024-01-10T07:01:50;13.47;;;7.43;;
13386;SDS011;6763;48.524;9.044;2024-01-10T07:04:21;12.53;;;6.70;;
13386;SDS011;6763;48.524;9.044;2024-01-10T07:06:48;13.27;;;6.27;;
13386;SDS011;6763;48.524;9.044;2024-01-10T07:09:14;10.33;;;5.73;;
13386;SDS011;6763;48.524;9.044;2024-01-10T07:11:44;12.93;;;5.30;;
13386;SDS011;6763;48.524;9.044;2024-01-10T07:14:13;11.87;;;6.40;;
13386;SDS011;6763;48.524;9.044;2024-01-10T07:16:39;12.47;;;8.37;;
13386;SDS011;6763;48.524;9.044;2024-01-10T07:19:07;14.20;;;7.33;;
13386;SDS011;6763;48.524;9.044;2024-01-10T07:21:34;11.33;;;5.90;;
13386;SDS011;6763;48.524;9.044;2024-01-10T07:23:59;12.63;;;7.33;;
13386;SDS011;6763;48.524;9.044;2024-01-10T07:26:24;12.47;;;6.87;;
13386;SDS011;6763;48.524;9.044;2024-01-10T07:28:52;10.67;;;6.93;;
13386;SDS011;6763;48.524;9.044;2024-01-10T07:31:17;8.27;;;5.47;;
13386;SDS011;6763;48.524;9.044;2024-01-10T07:33:43;11.30;;;4.93;;
13386;SDS011;6763;48.524;9.044;2024-01-10T07:36:08;11.47;;;7.33;;
13386;SDS011;6763;48.524;9.044;2024-01-10T07:38:34;12.13;;;5.87;;
13386;SDS011;6763;48.524;9.044;2024-01-10T07:40:59;12.80;;;5.63;;
13386;SDS011;6763;48.524;9.044;2024-01-10T07:43:24;14.53;;;6.73;;
13386;SDS011;6763;48.524;9.044;2024-01-10T07:45:52;13.37;;;6.87;;
13386;SDS011;6763;48.524;9.044;2024-01-10T07:48:18;11.20;;;6.37;;
13386;SDS011;6763;48.524;9.044;2024-01-10T07:50:43;14.10;;;6.87;;
13386;SDS011;6763;48.524;9.044;2024-01-10T07:53:09;12.20;;;6.37;;
13386;SDS011;6763;48.524;9.044;2024-01-10T07:55:35;11.23;;;7.10;;
13386;SDS011;6763;48.524;9.044;2024-01-10T07:58:00;11.93;;;5.97;;
13386;SDS011;6763;48.524;9.044;2024-01-10T08:00:26;10.87;;;6.00;;
13386;SDS011;6763;48.524;9.044;2024-01-10T08:02:51;17.67;;;6.73;;
13386;SDS011;6763;48.524;9.044;2024-01-10T08:05:19;8.97;;;5.13;;
13386;SDS011;6763;48.524;9.044;2024-01-10T08:07:46;12.80;;;7.07;;
13386;SDS011;6763;48.524;9.044;2024-01-10T08:10:11;13.17;;;6.50;;
13386;SDS011;6763;48.524;9.044;2024-01-10T08:12:38;13.10;;;5.73;;
13386;SDS011;6763;48.524;9.044;2024-01-10T08:15:04;12.70;;;6.53;;
13386;SDS011;6763;48.524;9.044;2024-01-10T08:17:32;12.73;;;4.77;;
13386;SDS011;6763;48.524;9.044;2024-01-10T08:19:59;13.47;;;5.80;;
13386;SDS011;6763;48.524;9.044;2024-01-10T08:22:25;10.03;;;6.13;;
13386;SDS011;6763;48.524;9.044;2024-01-10T08:24:51;17.97;;;7.47;;
13386;SDS011;6763;48.524;9.044;2024-01-10T08:27:16;9.23;;;5.50;;
13386;SDS011;6763;48.524;9.044;2024-01-10T08:29:42;11.53;;;5.93;;
13386;SDS011;6763;48.524;9.044;2024-01-10T08:32:07;14.27;;;7.53;;
13386;SDS011;6763;48.524;9.044;2024-01-10T08:34:32;18.37;;;7.03;;
13386;SDS011;6763;48.524;9.044;2024-01-10T08:36:58;13.07;;;5.30;;
13386;SDS011;6763;48.524;9.044;2024-01-10T08:39:23;17.17;;;6.00;;
13386;SDS011;6763;48.524;9.044;2024-01-10T08:41:53;12.93;;;6.50;;
13386;SDS011;6763;48.524;9.044;2024-01-10T08:44:18;13.50;;;7.20;;
13386;SDS011;6763;48.524;9.044;2024-01-10T08:46:44;11.63;;;6.63;;
13386;SDS011;6763;48.524;9.044;2024-01-10T08:49:11;12.93;;;7.97;;
13386;SDS011;6763;48.524;9.044;2024-01-10T08:51:44;15.23;;;7.27;;
13386;SDS011;6763;48.524;9.044;2024-01-10T08:54:11;17.83;;;8.83;;
13386;SDS011;6763;48.524;9.044;2024-01-10T08:56:41;11.83;;;6.67;;
13386;SDS011;6763;48.524;9.044;2024-01-10T08:59:09;14.83;;;7.57;;
13386;SDS011;6763;48.524;9.044;2024-01-10T09:01:35;20.03;;;8.73;;
13386;SDS011;6763;48.524;9.044;2024-01-10T09:04:01;14.10;;;7.27;;
13386;SDS011;6763;48.524;9.044;2024-01-10T09:06:26;13.87;;;8.00;;
13386;SDS011;6763;48.524;9.044;2024-01-10T09:08:51;13.80;;;8.27;;
13386;SDS011;6763;48.524;9.044;2024-01-10T09:11:17;14.37;;;7.90;;
13386;SDS011;6763;48.524;9.044;2024-01-10T09:13:42;15.10;;;8.00;;
13386;SDS011;6763;48.524;9.044;2024-01-10T09:16:07;18.03;;;8.20;;
13386;SDS011;6763;48.524;9.044;2024-01-10T09:18:33;17.10;;;8.43;;
13386;SDS011;6763;48.524;9.044;2024-01-10T09:20:58;15.83;;;6.93;;
13386;SDS011;6763;48.524;9.044;2024-01-10T09:23:23;13.53;;;8.27;;
13386;SDS011;6763;48.524;9.044;2024-01-10T09:25:49;11.77;;;7.53;;
13386;SDS011;6763;48.524;9.044;2024-01-10T09:28:14;15.60;;;7.30;;
13386;SDS011;6763;48.524;9.044;2024-01-10T09:30:42;11.00;;;7.47;;
13386;SDS011;6763;48.524;9.044;2024-01-10T09:33:07;17.17;;;7.17;;
13386;SDS011;6763;48.524;9.044;2024-01-10T09:35:36;17.50;;;7.63;;
13386;SDS011;6763;48.524;9.044;2024-01-10T09:38:04;12.07;;;6.77;;
13386;SDS011;6763;48.524;9.044;2024-01-10T09:40:32;19.37;;;7.87;;
13386;SDS011;6763;48.524;9.044;2024-01-10T09:42:57;14.40;;;8.07;;
13386;SDS011;6763;48.524;9.044;2024-01-10T09:45:23;15.17;;;7.43;;
13386;SDS011;6763;48.524;9.044;2024-01-10T09:47:52;12.17;;;6.43;;
13386;SDS011;6763;48.524;9.044;2024-01-10T09:50:19;14.57;;;6.57;;
13386;SDS011;6763;48.524;9.044;2024-01-10T09:52:54;13.60;;;6.50;;
13386;SDS011;6763;48.524;9.044;2024-01-10T09:55:28;14.87;;;7.70;;
13386;SDS011;6763;48.524;9.044;2024-01-10T09:58:10;13.27;;;7.10;;
13386;SDS011;6763;48.524;9.044;2024-01-10T10:00:36;15.47;;;8.17;;
13386;SDS011;6763;48.524;9.044;2024-01-10T10:03:04;15.23;;;8.00;;
13386;SDS011;6763;48.524;9.044;2024-01-10T10:05:32;18.57;;;7.93;;
13386;SDS011;6763;48.524;9.044;2024-01-10T10:07:59;16.57;;;8.03;;
13386;SDS011;6763;48.524;9.044;2024-01-10T10:10:28;14.47;;;7.50;;
13386;SDS011;6763;48.524;9.044;2024-01-10T10:12:53;22.73;;;8.63;;
13386;SDS011;6763;48.524;9.044;2024-01-10T10:15:19;16.57;;;8.40;;
13386;SDS011;6763;48.524;9.044;2024-01-10T10:17:51;14.53;;;7.43;;
13386;SDS011;6763;48.524;9.044;2024-01-10T10:23:06;15.90;;;8.83;;
13386;SDS011;6763;48.524;9.044;2024-01-10T10:25:42;20.90;;;8.33;;
13386;SDS011;6763;48.524;9.044;2024-01-10T10:28:08;14.87;;;7.20;;
13386;SDS011;6763;48.524;9.044;2024-01-10T10:30:34;15.07;;;7.27;;
13386;SDS011;6763;48.524;9.044;2024-01-10T10:33:01;17.17;;;7.10;;
13386;SDS011;6763;48.524;9.044;2024-01-10T10:35:28;12.13;;;6.80;;
13386;SDS011;6763;48.524;9.044;2024-01-10T10:37:53;14.10;;;6.33;;
13386;SDS011;6763;48.524;9.044;2024-01-10T10:40:22;17.03;;;7.27;;
13386;SDS011;6763;48.524;9.044;2024-01-10T10:42:56;14.07;;;6.63;;
13386;SDS011;6763;48.524;9.044;2024-01-10T10:45:22;11.93;;;6.60;;
13386;SDS011;6763;48.524;9.044;2024-01-10T10:47:50;15.70;;;7.67;;
13386;SDS011;6763;48.524;9.044;2024-01-10T10:50:33;16.37;;;7.43;;
13386;SDS011;6763;48.524;9.044;2024-01-10T10:53:00;13.43;;;6.27;;
13386;SDS011;6763;48.524;9.044;2024-01-10T10:55:28;17.73;;;8.27;;
13386;SDS011;6763;48.524;9.044;2024-01-10T10:57:54;14.73;;;7.00;;
13386;SDS011;6763;48.524;9.044;2024-01-10T11:00:21;15.53;;;7.90;;
13386;SDS011;6763;48.524;9.044;2024-01-10T11:02:52;13.60;;;7.00;;
13386;SDS011;6763;48.524;9.044;2024-01-10T11:05:18;15.07;;;7.70;;
13386;SDS011;6763;48.524;9.044;2024-01-10T11:07:45;13.63;;;6.87;;
13386;SDS011;6763;48.524;9.044;2024-01-10T11:10:12;13.77;;;6.77;;
13386;SDS011;6763;48.524;9.044;2024-01-10T11:25:57;9.30;;;5.57;;
13386;SDS011;6763;48.524;9.044;2024-01-10T11:28:24;10.83;;;6.27;;
13386;SDS011;6763;48.524;9.044;2024-01-10T11:30:51;12.27;;;6.80;;
13386;SDS011;6763;48.524;9.044;2024-01-10T11:38:41;11.10;;;6.33;;
13386;SDS011;6763;48.524;9.044;2024-01-10T11:41:26;10.77;;;6.67;;
13386;SDS011;6763;48.524;9.044;2024-01-10T11:46:42;14.43;;;7.03;;
13386;SDS011;6763;48.524;9.044;2024-01-10T11:49:08;12.10;;;6.60;;
13386;SDS011;6763;48.524;9.044;2024-01-10T11:51:37;13.73;;;7.43;;
13386;SDS011;6763;48.524;9.044;2024-01-10T11:54:02;15.20;;;7.67;;
13386;SDS011;6763;48.524;9.044;2024-01-10T11:56:37;10.90;;;6.87;;
13386;SDS011;6763;48.524;9.044;2024-01-10T11:59:07;11.57;;;7.10;;
13386;SDS011;6763;48.524;9.044;2024-01-10T12:01:34;13.60;;;7.57;;
13386;SDS011;6763;48.524;9.044;2024-01-10T12:04:00;12.97;;;7.30;;
13386;SDS011;6763;48.524;9.044;2024-01-10T12:06:28;12.40;;;6.37;;
13386;SDS011;6763;48.524;9.044;2024-01-10T12:08:55;13.43;;;7.23;;
13386;SDS011;6763;48.524;9.044;2024-01-10T12:11:20;13.80;;;6.73;;
13386;SDS011;6763;48.524;9.044;2024-01-10T12:13:48;13.60;;;7.17;;
13386;SDS011;6763;48.524;9.044;2024-01-10T12:16:14;9.80;;;6.23;;
13386;SDS011;6763;48.524;9.044;2024-01-10T12:18:40;10.47;;;6.27;;
13386;SDS011;6763;48.524;9.044;2024-01-10T12:21:06;8.63;;;5.77;;
13386;SDS011;6763;48.524;9.044;2024-01-10T12:23:33;13.17;;;6.60;;
13386;SDS011;6763;48.524;9.044;2024-01-10T12:26:03;12.23;;;6.80;;
13386;SDS011;6763;48.524;9.044;2024-01-10T12:28:30;11.33;;;6.47;;
13386;SDS011;6763;48.524;9.044;2024-01-10T12:30:55;11.07;;;6.77;;
13386;SDS011;6763;48.524;9.044;2024-01-10T12:33:22;11.47;;;7.17;;
13386;SDS011;6763;48.524;9.044;2024-01-10T12:36:01;12.77;;;6.90;;
13386;SDS011;6763;48.524;9.044;2024-01-10T12:38:32;12.23;;;7.07;;
13386;SDS011;6763;48.524;9.044;2024-01-10T12:40:58;11.67;;;6.27;;
13386;SDS011;6763;48.524;9.044;2024-01-10T12:43:25;12.73;;;6.53;;
13386;SDS011;6763;48.524;9.044;2024-01-10T12:48:31;12.70;;;6.33;;
13386;SDS011;6763;48.524;9.044;2024-01-10T12:51:02;12.17;;;5.13;;
13386;SDS011;6763;48.524;9.044;2024-01-10T12:53:35;12.07;;;5.87;;
13386;SDS011;6763;48.524;9.044;2024-01-10T12:56:02;10.57;;;6.43;;
13386;SDS011;6763;48.524;9.044;2024-01-10T12:58:28;11.37;;;6.20;;
13386;SDS011;6763;48.524;9.044;2024-01-10T13:00:54;11.10;;;6.17;;
13386;SDS011;6763;48.524;9.044;2024-01-10T13:03:22;10.77;;;5.73;;
13386;SDS011;6763;48.524;9.044;2024-01-10T13:05:48;10.07;;;5.77;;
13386;SDS011;6763;48.524;9.044;2024-01-10T13:08:13;10.43;;;6.27;;
13386;SDS011;6763;48.524;9.044;2024-01-10T13:10:39;12.20;;;5.97;;
13386;SDS011;6763;48.524;9.044;2024-01-10T13:13:04;11.17;;;6.10;;
13386;SDS011;6763;48.524;9.044;2024-01-10T13:15:29;11.50;;;5.93;;
13386;SDS011;6763;48.524;9.044;2024-01-10T13:17:55;13.50;;;7.17;;
13386;SDS011;6763;48.524;9.044;2024-01-10T13:20:21;11.73;;;6.33;;
13386;SDS011;6763;48.524;9.044;2024-01-10T13:22:46;13.07;;;6.57;;
13386;SDS011;6763;48.524;9.044;2024-01-10T13:25:11;12.03;;;6.10;;
13386;SDS011;6763;48.524;9.044;2024-01-10T13:27:37;10.43;;;5.83;;
13386;SDS011;6763;48.524;9.044;2024-01-10T13:30:03;9.47;;;6.43;;
13386;SDS011;6763;48.524;9.044;2024-01-10T13:32:32;13.60;;;6.57;;
13386;SDS011;6763;48.524;9.044;2024-01-10T13:34:57;10.40;;;5.63;;
13386;SDS011;6763;48.524;9.044;2024-01-10T13:37:22;11.50;;;6.23;;
13386;SDS011;6763;48.524;9.044;2024-01-10T13:39:48;12.63;;;6.87;;
13386;SDS011;6763;48.524;9.044;2024-01-10T13:42:16;12.10;;;6.40;;
13386;SDS011;6763;48.524;9.044;2024-01-10T13:44:41;12.20;;;7.20;;
13386;SDS011;6763;48.524;9.044;2024-01-10T13:47:06;11.17;;;6.63;;
13386;SDS011;6763;48.524;9.044;2024-01-10T13:49:32;9.90;;;5.90;;
13386;SDS011;6763;48.524;9.044;2024-01-10T13:51:59;11.97;;;6.40;;
13386;SDS011;6763;48.524;9.044;2024-01-10T13:54:25;11.83;;;6.50;;
13386;SDS011;6763;48.524;9.044;2024-01-10T13:56:50;9.10;;;5.97;;
13386;SDS011;6763;48.524;9.044;2024-01-10T13:59:15;9.80;;;6.23;;
13386;SDS011;6763;48.524;9.044;2024-01-10T14:01:43;13.27;;;6.77;;
13386;SDS011;6763;48.524;9.044;2024-01-10T14:04:08;13.13;;;6.90;;
13386;SDS011;6763;48.524;9.044;2024-01-10T14:06:34;12.03;;;6.80;;
13386;SDS011;6763;48.524;9.044;2024-01-10T14:08:59;10.13;;;6.97;;
13386;SDS011;6763;48.524;9.044;2024-01-10T14:11:24;13.20;;;6.57;;
13386;SDS011;6763;48.524;9.044;2024-01-10T14:13:51;10.77;;;6.87;;
13386;SDS011;6763;48.524;9.044;2024-01-10T14:16:19;11.53;;;6.23;;
13386;SDS011;6763;48.524;9.044;2024-01-10T14:18:45;11.00;;;6.30;;
13386;SDS011;6763;48.524;9.044;2024-01-10T14:21:12;13.00;;;6.33;;
13386;SDS011;6763;48.524;9.044;2024-01-10T14:23:37;10.17;;;6.47;;
13386;SDS011;6763;48.524;9.044;2024-01-10T14:26:05;12.93;;;6.77;;
13386;SDS011;6763;48.524;9.044;2024-01-10T14:28:31;9.40;;;5.93;;
13386;SDS011;6763;48.524;9.044;2024-01-10T14:30:59;12.10;;;6.50;;
13386;SDS011;6763;48.524;9.044;2024-01-10T14:33:25;11.03;;;6.30;;
13386;SDS011;6763;48.524;9.044;2024-01-10T14:35:51;11.83;;;6.77;;
13386;SDS011;6763;48.524;9.044;2024-01-10T14:38:16;11.17;;;6.07;;
13386;SDS011;6763;48.524;9.044;2024-01-10T14:40:45;10.43;;;6.63;;
13386;SDS011;6763;48.524;9.044;2024-01-10T14:43:11;12.10;;;6.93;;
13386;SDS011;6763;48.524;9.044;2024-01-10T14:45:38;15.00;;;6.60;;
13386;SDS011;6763;48.524;9.044;2024-01-10T14:48:03;11.67;;;6.00;;
13386;SDS011;6763;48.524;9.044;2024-01-10T14:50:31;12.33;;;6.37;;
13386;SDS011;6763;48.524;9.044;2024-01-10T14:52:57;13.30;;;7.40;;
13386;SDS011;6763;48.524;9.044;2024-01-10T14:55:22;10.80;;;6.57;;
13386;SDS011;6763;48.524;9.044;2024-01-10T14:57:49;12.30;;;7.30;;
13386;SDS011;6763;48.524;9.044;2024-01-10T15:00:15;13.07;;;6.17;;
13386;SDS011;6763;48.524;9.044;2024-01-10T15:02:43;11.50;;;6.40;;
13386;SDS011;6763;48.524;9.044;2024-01-10T15:05:10;12.07;;;6.77;;
13386;SDS011;6763;48.524;9.044;2024-01-10T15:07:36;14.83;;;6.73;;
13386;SDS011;6763;48.524;9.044;2024-01-10T15:10:01;13.20;;;6.47;;
13386;SDS011;6763;48.524;9.044;2024-01-10T15:15:07;11.00;;;5.67;;
13386;SDS011;6763;48.524;9.044;2024-01-10T15:17:33;12.80;;;6.23;;
13386;SDS011;6763;48.524;9.044;2024-01-10T15:20:03;12.70;;;6.37;;